createdAt,value
2022-08-21T00:00:23.303Z,10.75
2022-08-21T00:02:55.802Z,10.77
2022-08-21T00:05:24.344Z,12.88
2022-08-21T00:07:52.102Z,12.07
2022-08-21T00:10:20.552Z,13.13
2022-08-21T00:12:48.662Z,13.77
2022-08-21T00:15:19.182Z,10.43
2022-08-21T00:17:47.734Z,12.27
2022-08-21T00:20:16.963Z,12.30
2022-08-21T00:22:44.598Z,11.98
2022-08-21T00:25:12.043Z,10.13
2022-08-21T00:27:39.092Z,11.05
2022-08-21T00:30:07.820Z,11.23
2022-08-21T00:32:35.081Z,10.73
2022-08-21T00:35:01.939Z,10.95
2022-08-21T00:37:28.788Z,10.93
2022-08-21T00:39:57.569Z,12.55
2022-08-21T00:42:25.156Z,11.80
2022-08-21T00:44:52.138Z,15.52
2022-08-21T00:47:20.169Z,10.82
2022-08-21T00:49:47.430Z,12.75
2022-08-21T00:52:20.254Z,14.43
2022-08-21T00:54:49.555Z,11.13
2022-08-21T00:57:32.755Z,11.60
2022-08-21T01:00:02.117Z,10.95
2022-08-21T01:02:29.159Z,12.25
2022-08-21T01:04:58.451Z,10.32
2022-08-21T01:07:27.539Z,12.98
2022-08-21T01:10:24.147Z,14.15
2022-08-21T01:12:54.383Z,16.42
2022-08-21T01:15:24.135Z,15.32
2022-08-21T01:17:52.002Z,12.93
2022-08-21T01:20:18.910Z,13.77
2022-08-21T01:22:46.039Z,12.13
2022-08-21T01:25:15.990Z,11.50
2022-08-21T01:27:43.577Z,11.33
2022-08-21T01:30:17.789Z,11.15
2022-08-21T01:32:45.003Z,11.00
2022-08-21T01:35:13.268Z,11.40
2022-08-21T01:37:40.607Z,12.27
2022-08-21T01:40:08.776Z,10.85
2022-08-21T01:42:36.405Z,11.25
2022-08-21T01:45:05.050Z,9.35
2022-08-21T01:47:32.363Z,9.80
2022-08-21T01:49:59.635Z,12.80
2022-08-21T01:52:27.148Z,11.05
2022-08-21T01:54:55.712Z,10.93
2022-08-21T01:57:23.063Z,10.07
2022-08-21T01:59:53.853Z,9.65
2022-08-21T02:02:21.102Z,8.88
2022-08-21T02:04:47.865Z,8.20
2022-08-21T02:07:14.752Z,9.48
2022-08-21T02:09:43.382Z,10.27
2022-08-21T02:12:11.543Z,8.30
2022-08-21T02:14:38.778Z,9.75
2022-08-21T02:17:09.697Z,8.98
2022-08-21T02:19:40.333Z,8.77
2022-08-21T02:24:53.660Z,8.50
2022-08-21T02:27:26.591Z,8.38
2022-08-21T02:29:58.299Z,8.45
2022-08-21T02:32:25.705Z,8.88
2022-08-21T02:34:53.188Z,8.27
2022-08-21T02:37:20.095Z,9.63
2022-08-21T02:39:47.052Z,8.02
2022-08-21T02:42:14.011Z,8.55
2022-08-21T02:44:40.850Z,9.00
2022-08-21T02:47:08.091Z,10.05
2022-08-21T02:49:34.883Z,7.88
2022-08-21T02:52:01.699Z,8.25
2022-08-21T02:54:28.517Z,8.57
2022-08-21T02:56:55.346Z,7.18
2022-08-21T02:59:22.162Z,8.32
2022-08-21T03:01:48.997Z,8.18
2022-08-21T03:04:16.036Z,8.50
2022-08-21T03:06:42.816Z,8.70
2022-08-21T03:09:09.692Z,8.93
2022-08-21T03:11:37.096Z,8.85
2022-08-21T03:14:04.091Z,9.00
2022-08-21T03:16:34.766Z,9.40
2022-08-21T03:19:02.110Z,13.50
2022-08-21T03:21:29.622Z,16.83
2022-08-21T03:23:56.517Z,11.82
2022-08-21T03:26:23.322Z,14.95
2022-08-21T03:28:51.616Z,11.85
2022-08-21T03:31:19.354Z,12.27
2022-08-21T03:33:46.177Z,11.30
2022-08-21T03:36:13.075Z,14.63
2022-08-21T03:38:40.158Z,15.45
2022-08-21T03:41:08.168Z,12.15
2022-08-21T03:43:36.517Z,11.80
2022-08-21T03:46:04.599Z,16.00
2022-08-21T03:48:31.681Z,14.43
2022-08-21T03:50:58.630Z,12.70
2022-08-21T03:53:26.080Z,14.27
2022-08-21T03:55:54.078Z,13.57
2022-08-21T03:58:24.535Z,14.95
2022-08-21T04:00:55.189Z,14.77
2022-08-21T04:03:22.285Z,16.23
2022-08-21T04:05:49.565Z,12.40
2022-08-21T04:08:20.985Z,13.10
2022-08-21T04:10:50.652Z,13.65
2022-08-21T04:13:17.448Z,11.18
2022-08-21T04:15:44.412Z,12.90
2022-08-21T04:18:11.801Z,12.77
2022-08-21T04:20:39.341Z,12.40
2022-08-21T04:23:06.841Z,12.20
2022-08-21T04:25:33.786Z,11.80
2022-08-21T04:28:00.657Z,10.95
2022-08-21T04:30:28.612Z,11.40
2022-08-21T04:32:58.714Z,10.68
2022-08-21T04:35:27.667Z,12.47
2022-08-21T04:37:54.533Z,9.77
2022-08-21T04:40:22.616Z,11.43
2022-08-21T04:42:52.448Z,12.13
2022-08-21T04:45:21.587Z,11.85
2022-08-21T04:47:53.612Z,9.50
2022-08-21T04:50:27.406Z,11.38
2022-08-21T04:53:06.184Z,10.50
2022-08-21T04:55:33.369Z,11.68
2022-08-21T04:58:00.980Z,10.75
2022-08-21T05:00:28.007Z,12.07
2022-08-21T05:02:57.804Z,10.82
2022-08-21T05:05:25.317Z,12.40
2022-08-21T05:07:54.331Z,12.80
2022-08-21T05:10:21.655Z,11.82
2022-08-21T05:12:48.563Z,14.00
2022-08-21T05:15:15.524Z,14.60
2022-08-21T05:17:43.023Z,12.38
2022-08-21T05:20:11.597Z,11.90
2022-08-21T05:22:38.516Z,14.20
2022-08-21T05:25:10.537Z,12.70
2022-08-21T05:27:39.138Z,13.70
2022-08-21T05:30:09.764Z,14.32
2022-08-21T05:32:37.620Z,13.20
2022-08-21T05:35:08.261Z,13.45
2022-08-21T05:37:35.347Z,11.02
2022-08-21T05:40:22.651Z,14.10
2022-08-21T05:42:56.731Z,12.20
2022-08-21T05:45:42.625Z,13.80
2022-08-21T05:48:22.115Z,14.88
2022-08-21T05:50:50.506Z,11.95
2022-08-21T05:53:19.585Z,13.32
2022-08-21T05:55:47.170Z,13.30
2022-08-21T05:58:16.312Z,11.90
2022-08-21T06:00:44.326Z,11.52
2022-08-21T06:03:29.450Z,12.60
2022-08-21T06:05:56.695Z,11.38
2022-08-21T06:08:24.115Z,10.90
2022-08-21T06:10:52.581Z,12.77
2022-08-21T06:13:21.141Z,12.38
2022-08-21T06:15:48.499Z,11.48
2022-08-21T06:18:15.796Z,13.35
2022-08-21T06:20:42.989Z,12.15
2022-08-21T06:23:10.065Z,13.23
2022-08-21T06:25:36.960Z,13.88
2022-08-21T06:28:09.652Z,15.10
2022-08-21T06:30:38.113Z,15.73
2022-08-21T06:33:05.672Z,16.45
2022-08-21T06:35:32.522Z,15.55
2022-08-21T06:37:59.713Z,14.85
2022-08-21T06:40:29.786Z,14.77
2022-08-21T06:43:06.684Z,14.18
2022-08-21T06:45:33.977Z,14.95
2022-08-21T06:48:00.725Z,15.65
2022-08-21T06:50:27.904Z,16.77
2022-08-21T06:53:10.708Z,18.20
2022-08-21T06:55:38.571Z,14.20
2022-08-21T06:58:06.230Z,13.32
2022-08-21T07:00:33.792Z,13.43
2022-08-21T07:03:00.799Z,13.73
2022-08-21T07:05:29.975Z,18.17
2022-08-21T07:07:57.999Z,11.73
2022-08-21T07:10:26.964Z,12.90
2022-08-21T07:13:00.846Z,13.20
2022-08-21T07:15:30.565Z,11.88
2022-08-21T07:17:58.674Z,10.60
2022-08-21T07:20:25.668Z,14.05
2022-08-21T07:22:52.711Z,14.38
2022-08-21T07:25:19.690Z,10.20
2022-08-21T07:27:46.553Z,14.05
2022-08-21T07:30:13.537Z,13.18
2022-08-21T07:32:40.403Z,14.32
2022-08-21T07:35:08.306Z,16.02
2022-08-21T07:37:35.242Z,13.57
2022-08-21T07:40:02.165Z,14.32
2022-08-21T07:42:29.009Z,15.00
2022-08-21T07:44:56.809Z,14.20
2022-08-21T07:47:29.557Z,16.13
2022-08-21T07:50:09.379Z,13.00
2022-08-21T07:52:36.302Z,15.43
2022-08-21T07:55:06.293Z,13.93
2022-08-21T07:57:34.057Z,20.20
2022-08-21T08:00:01.020Z,27.73
2022-08-21T08:02:30.307Z,19.23
2022-08-21T08:05:05.542Z,13.45
2022-08-21T08:07:32.865Z,9.73
2022-08-21T08:09:59.702Z,13.45
2022-08-21T08:12:30.493Z,12.27
2022-08-21T08:15:01.402Z,11.10
2022-08-21T08:19:55.163Z,11.52
2022-08-21T08:22:24.877Z,13.77
2022-08-21T08:24:52.974Z,11.80
2022-08-21T08:27:20.466Z,11.32
2022-08-21T08:29:48.331Z,10.73
2022-08-21T08:32:15.597Z,10.50
2022-08-21T08:34:42.660Z,11.05
2022-08-21T08:37:10.834Z,9.50
2022-08-21T08:39:38.027Z,10.02
2022-08-21T08:42:32.174Z,14.50
2022-08-21T08:45:09.171Z,11.45
2022-08-21T08:47:39.706Z,9.07
2022-08-21T08:50:19.431Z,11.00
2022-08-21T08:52:51.057Z,10.63
2022-08-21T08:55:29.110Z,9.68
2022-08-21T08:57:56.586Z,9.75
2022-08-21T09:00:24.208Z,10.18
2022-08-21T09:02:55.200Z,11.23
2022-08-21T09:05:46.115Z,10.77
2022-08-21T09:08:18.908Z,12.27
2022-08-21T09:10:57.765Z,9.85
2022-08-21T09:13:39.372Z,10.90
2022-08-21T09:16:38.490Z,10.35
2022-08-21T09:19:28.243Z,18.25
2022-08-21T09:21:57.820Z,10.23
2022-08-21T09:24:37.613Z,11.55
2022-08-21T09:27:13.247Z,10.40
2022-08-21T09:29:44.684Z,12.18
2022-08-21T09:32:19.277Z,11.15
2022-08-21T09:35:25.612Z,17.98
2022-08-21T09:37:55.830Z,8.95
2022-08-21T09:40:37.927Z,14.43
2022-08-21T09:43:18.036Z,12.57
2022-08-21T09:45:46.229Z,13.85
2022-08-21T09:48:14.743Z,14.68
2022-08-21T09:50:43.536Z,12.00
2022-08-21T09:53:43.305Z,13.23
2022-08-21T09:56:51.541Z,11.73
2022-08-21T09:59:36.518Z,11.77
2022-08-21T10:02:28.200Z,13.32
2022-08-21T10:05:01.298Z,12.85
2022-08-21T10:07:31.946Z,10.00
2022-08-21T10:10:09.605Z,12.77
2022-08-21T10:12:54.488Z,17.50
2022-08-21T10:15:41.922Z,10.18
2022-08-21T10:18:20.762Z,13.05
2022-08-21T10:21:12.379Z,9.68
2022-08-21T10:24:11.164Z,11.48
2022-08-21T10:26:58.082Z,11.95
2022-08-21T10:29:33.798Z,11.23
2022-08-21T10:32:30.111Z,12.93
2022-08-21T10:35:09.506Z,10.07
2022-08-21T10:37:41.722Z,9.98
2022-08-21T10:40:08.679Z,12.18
2022-08-21T10:42:54.359Z,11.63
2022-08-21T10:45:32.236Z,15.50
2022-08-21T10:48:05.774Z,9.93
2022-08-21T10:50:40.937Z,15.52
2022-08-21T10:53:26.544Z,9.23
2022-08-21T10:55:57.153Z,10.13
2022-08-21T10:58:31.398Z,10.55
2022-08-21T11:01:08.660Z,12.45
2022-08-21T11:03:44.623Z,11.20
2022-08-21T11:06:16.603Z,12.65
2022-08-21T11:08:52.083Z,13.07
2022-08-21T11:11:31.065Z,10.48
2022-08-21T11:14:10.931Z,10.68
2022-08-21T11:17:02.373Z,11.57
2022-08-21T11:19:38.034Z,14.52
2022-08-21T11:22:16.589Z,10.73
2022-08-21T11:25:00.630Z,14.63
2022-08-21T11:27:37.376Z,10.18
2022-08-21T11:30:05.270Z,11.07
2022-08-21T11:32:56.091Z,12.10
2022-08-21T11:38:21.576Z,8.38
2022-08-21T11:41:05.558Z,9.40
2022-08-21T11:43:46.939Z,11.15
2022-08-21T11:46:48.105Z,9.80
2022-08-21T11:49:52.322Z,8.35
2022-08-21T11:52:41.558Z,9.25
2022-08-21T11:55:36.809Z,11.23
2022-08-21T11:58:08.278Z,11.85
2022-08-21T12:01:21.450Z,13.98
2022-08-21T12:04:10.010Z,9.98
2022-08-21T12:06:42.329Z,9.10
2022-08-21T12:09:35.622Z,12.48
2022-08-21T12:12:28.173Z,8.70
2022-08-21T12:15:18.718Z,10.93
2022-08-21T12:18:01.576Z,9.85
2022-08-21T12:20:50.585Z,7.93
2022-08-21T12:23:27.939Z,9.45
2022-08-21T12:26:22.145Z,8.90
2022-08-21T12:28:49.309Z,9.60
2022-08-21T12:31:22.221Z,8.80
2022-08-21T12:33:59.210Z,9.18
2022-08-21T12:36:40.350Z,12.05
2022-08-21T12:39:14.517Z,8.60
2022-08-21T12:41:52.269Z,8.18
2022-08-21T12:44:38.035Z,12.23
2022-08-21T12:47:15.512Z,11.57
2022-08-21T12:49:54.363Z,10.85
2022-08-21T12:52:29.071Z,9.75
2022-08-21T12:54:56.072Z,9.35
2022-08-21T12:57:29.427Z,8.35
2022-08-21T13:00:04.895Z,9.18
2022-08-21T13:02:40.716Z,9.00
2022-08-21T13:05:13.126Z,9.05
2022-08-21T13:07:46.895Z,9.23
2022-08-21T13:10:20.062Z,7.15
2022-08-21T13:12:48.260Z,7.60
2022-08-21T13:15:15.776Z,8.05
2022-08-21T13:17:48.842Z,8.50
2022-08-21T13:20:25.863Z,8.98
2022-08-21T13:22:53.229Z,8.73
2022-08-21T13:25:22.103Z,7.75
2022-08-21T13:28:12.451Z,7.70
2022-08-21T13:30:59.878Z,7.85
2022-08-21T13:33:36.284Z,7.15
2022-08-21T13:36:06.408Z,8.68
2022-08-21T13:38:36.188Z,6.68
2022-08-21T13:41:13.906Z,9.88
2022-08-21T13:43:58.219Z,8.95
2022-08-21T13:46:28.231Z,8.50
2022-08-21T13:48:56.402Z,9.75
2022-08-21T13:51:23.470Z,11.30
2022-08-21T13:53:53.198Z,8.55
2022-08-21T13:56:41.861Z,6.68
2022-08-21T13:59:08.715Z,9.90
2022-08-21T14:01:50.380Z,6.93
2022-08-21T14:04:24.496Z,7.30
2022-08-21T14:06:52.497Z,10.15
2022-08-21T14:09:36.692Z,7.45
2022-08-21T14:12:23.094Z,10.63
2022-08-21T14:14:52.144Z,8.95
2022-08-21T14:17:37.669Z,7.88
2022-08-21T14:20:08.511Z,7.45
2022-08-21T14:22:45.624Z,7.32
2022-08-21T14:25:44.202Z,6.72
2022-08-21T14:28:27.907Z,7.65
2022-08-21T14:30:56.930Z,7.18
2022-08-21T14:33:29.844Z,6.70
2022-08-21T14:35:56.931Z,6.07
2022-08-21T14:38:27.125Z,6.32
2022-08-21T14:40:57.696Z,6.65
2022-08-21T14:43:26.737Z,8.63
2022-08-21T14:45:53.528Z,7.80
2022-08-21T14:48:20.423Z,6.70
2022-08-21T14:50:48.356Z,7.95
2022-08-21T14:53:17.166Z,5.78
2022-08-21T14:56:02.455Z,6.30
2022-08-21T14:58:29.393Z,6.75
2022-08-21T15:00:58.714Z,6.53
2022-08-21T15:03:26.684Z,10.35
2022-08-21T15:05:53.513Z,9.93
2022-08-21T15:08:20.448Z,5.78
2022-08-21T15:11:10.460Z,8.15
2022-08-21T15:13:34.697Z,6.00
2022-08-21T15:16:01.917Z,7.03
2022-08-21T15:18:31.984Z,5.75
2022-08-21T15:20:58.941Z,5.90
2022-08-21T15:23:26.128Z,8.35
2022-08-21T15:25:54.235Z,7.53
2022-08-21T15:28:22.109Z,6.00
2022-08-21T15:30:49.677Z,6.68
2022-08-21T15:33:17.061Z,5.78
2022-08-21T15:35:44.265Z,7.80
2022-08-21T15:38:11.347Z,6.55
2022-08-21T15:40:39.825Z,5.70
2022-08-21T15:43:30.123Z,5.68
2022-08-21T15:46:00.280Z,6.93
2022-08-21T15:48:27.330Z,6.00
2022-08-21T15:50:54.399Z,11.50
2022-08-21T15:53:21.269Z,6.88
2022-08-21T15:55:48.087Z,6.63
2022-08-21T15:58:16.773Z,7.47
2022-08-21T16:00:45.477Z,6.88
2022-08-21T16:03:17.558Z,6.95
2022-08-21T16:05:49.498Z,7.28
2022-08-21T16:08:16.627Z,6.40
2022-08-21T16:10:43.622Z,7.50
2022-08-21T16:13:37.090Z,8.85
2022-08-21T16:16:04.264Z,6.53
2022-08-21T16:18:31.055Z,6.72
2022-08-21T16:20:58.652Z,7.97
2022-08-21T16:23:25.566Z,5.78
2022-08-21T16:25:52.594Z,5.80
2022-08-21T16:28:21.344Z,6.38
2022-08-21T16:30:49.922Z,6.50
2022-08-21T16:33:32.893Z,6.25
2022-08-21T16:36:00.680Z,6.18
2022-08-21T16:38:32.443Z,7.80
2022-08-21T16:41:00.353Z,6.80
2022-08-21T16:43:30.482Z,5.97
2022-08-21T16:45:58.712Z,6.38
2022-08-21T16:48:25.666Z,8.05
2022-08-21T16:50:52.688Z,7.40
2022-08-21T16:53:19.527Z,6.38
2022-08-21T16:55:46.497Z,5.70
2022-08-21T16:58:35.540Z,7.13
2022-08-21T17:01:07.554Z,7.63
2022-08-21T17:03:43.594Z,7.57
2022-08-21T17:06:10.558Z,7.15
2022-08-21T17:08:38.208Z,6.82
2022-08-21T17:11:12.262Z,6.53
2022-08-21T17:13:58.601Z,7.88
2022-08-21T17:16:26.650Z,7.05
2022-08-21T17:18:54.658Z,8.23
2022-08-21T17:21:22.461Z,6.63
2022-08-21T17:23:49.706Z,6.60
2022-08-21T17:26:17.640Z,6.10
2022-08-21T17:28:47.032Z,6.55
2022-08-21T17:31:14.654Z,6.20
2022-08-21T17:33:53.141Z,7.15
2022-08-21T17:36:22.751Z,6.65
2022-08-21T17:38:49.928Z,6.43
2022-08-21T17:41:17.105Z,6.25
2022-08-21T17:43:44.339Z,7.57
2022-08-21T17:46:17.051Z,7.55
2022-08-21T17:48:47.206Z,6.60
2022-08-21T17:53:42.184Z,7.80
2022-08-21T17:56:09.395Z,6.82
2022-08-21T17:58:37.104Z,8.18
2022-08-21T18:01:05.632Z,6.50
2022-08-21T18:03:38.347Z,6.30
2022-08-21T18:06:06.446Z,6.13
2022-08-21T18:08:33.976Z,7.97
2022-08-21T18:11:01.406Z,7.35
2022-08-21T18:13:31.372Z,8.70
2022-08-21T18:16:00.226Z,7.70
2022-08-21T18:18:32.628Z,10.32
2022-08-21T18:20:59.424Z,9.15
2022-08-21T18:23:43.580Z,11.10
2022-08-21T18:26:15.558Z,6.70
2022-08-21T18:28:44.170Z,6.30
2022-08-21T18:31:12.172Z,6.10
2022-08-21T18:33:40.324Z,6.47
2022-08-21T18:36:21.461Z,9.25
2022-08-21T18:38:48.888Z,8.98
2022-08-21T18:41:15.759Z,8.63
2022-08-21T18:43:43.526Z,8.65
2022-08-21T18:46:10.777Z,8.00
2022-08-21T18:48:37.677Z,9.07
2022-08-21T18:51:04.773Z,6.88
2022-08-21T18:53:34.185Z,10.35
2022-08-21T18:56:04.955Z,6.80
2022-08-21T18:58:33.457Z,6.45
2022-08-21T19:01:00.944Z,6.45
2022-08-21T19:03:27.938Z,7.13
2022-08-21T19:05:55.274Z,7.45
2022-08-21T19:08:24.501Z,10.75
2022-08-21T19:10:54.873Z,5.88
2022-08-21T19:13:22.871Z,7.30
2022-08-21T19:15:55.211Z,7.40
2022-08-21T19:18:28.171Z,7.32
2022-08-21T19:20:57.441Z,6.30
2022-08-21T19:23:48.074Z,6.10
2022-08-21T19:26:21.862Z,6.50
2022-08-21T19:28:53.028Z,8.10
2022-08-21T19:31:29.869Z,9.93
2022-08-21T19:34:11.832Z,6.30
2022-08-21T19:36:38.982Z,6.93
2022-08-21T19:39:10.052Z,6.57
2022-08-21T19:41:40.722Z,6.13
2022-08-21T19:44:14.950Z,6.53
2022-08-21T19:46:44.214Z,7.40
2022-08-21T19:49:16.742Z,6.47
2022-08-21T19:51:46.500Z,5.80
2022-08-21T19:54:25.999Z,5.55
2022-08-21T19:56:57.010Z,6.30
2022-08-21T19:59:25.575Z,6.50
2022-08-21T20:01:52.692Z,8.15
2022-08-21T20:04:20.380Z,6.40
2022-08-21T20:06:47.337Z,6.43
2022-08-21T20:09:16.162Z,5.55
2022-08-21T20:11:50.262Z,6.88
2022-08-21T20:14:26.940Z,10.48
2022-08-21T20:17:05.743Z,19.17
2022-08-21T20:19:33.728Z,10.15
2022-08-21T20:22:02.044Z,7.22
2022-08-21T20:24:29.240Z,6.10
2022-08-21T20:26:57.163Z,7.22
2022-08-21T20:29:29.240Z,6.03
2022-08-21T20:32:04.794Z,8.02
2022-08-21T20:34:33.197Z,6.60
2022-08-21T20:37:01.252Z,6.47
2022-08-21T20:39:28.277Z,7.18
2022-08-21T20:41:56.111Z,8.15
2022-08-21T20:44:29.425Z,6.53
2022-08-21T20:46:57.873Z,7.53
2022-08-21T20:49:32.066Z,6.15
2022-08-21T20:52:01.154Z,6.93
2022-08-21T20:54:34.480Z,7.80
2022-08-21T20:57:13.595Z,7.05
2022-08-21T20:59:55.385Z,8.63
2022-08-21T21:02:51.538Z,12.63
2022-08-21T21:05:27.881Z,13.82
2022-08-21T21:08:25.340Z,9.23
2022-08-21T21:11:06.166Z,6.13
2022-08-21T21:13:35.484Z,6.35
2022-08-21T21:16:08.087Z,5.93
2022-08-21T21:19:12.696Z,8.25
2022-08-21T21:21:51.658Z,7.25
2022-08-21T21:24:27.664Z,9.45
2022-08-21T21:27:13.954Z,8.95
2022-08-21T21:29:53.661Z,7.38
2022-08-21T21:32:21.665Z,8.85
2022-08-21T21:37:58.076Z,6.80
2022-08-21T21:40:54.281Z,7.35
2022-08-21T21:43:55.277Z,7.13
2022-08-21T21:49:08.138Z,6.97
2022-08-21T21:52:15.018Z,9.77
2022-08-21T21:54:51.903Z,8.10
2022-08-21T21:57:36.146Z,7.55
2022-08-21T22:00:20.337Z,8.07
2022-08-21T22:03:08.082Z,7.30
2022-08-21T22:05:48.956Z,6.70
2022-08-21T22:08:50.645Z,5.63
2022-08-21T22:11:49.355Z,6.30
2022-08-21T22:14:30.155Z,11.60
2022-08-21T22:17:00.545Z,6.63
2022-08-21T22:19:34.994Z,6.70
2022-08-21T22:22:21.078Z,9.20
2022-08-21T22:24:53.076Z,8.18
2022-08-21T22:27:30.939Z,10.05
2022-08-21T22:30:00.345Z,11.20
2022-08-21T22:32:28.926Z,9.82
2022-08-21T22:35:19.573Z,7.63
2022-08-21T22:37:57.679Z,6.45
2022-08-21T22:40:35.175Z,7.55
2022-08-21T22:43:07.366Z,6.20
2022-08-21T22:45:57.705Z,8.15
2022-08-21T22:48:31.282Z,6.78
2022-08-21T22:51:09.516Z,7.72
2022-08-21T22:53:39.757Z,8.15
2022-08-21T22:56:08.019Z,7.00
2022-08-21T22:58:52.500Z,5.88
2022-08-21T23:01:22.371Z,8.07
2022-08-21T23:03:59.110Z,6.03
2022-08-21T23:06:31.837Z,7.18
2022-08-21T23:09:00.271Z,7.90
2022-08-21T23:11:41.053Z,10.15
2022-08-21T23:14:14.064Z,9.77
2022-08-21T23:17:02.496Z,6.60
2022-08-21T23:19:43.849Z,8.52
2022-08-21T23:22:22.381Z,7.70
2022-08-21T23:25:03.077Z,9.45
2022-08-21T23:28:11.088Z,7.55
2022-08-21T23:31:05.457Z,7.80
2022-08-21T23:33:43.828Z,11.20
2022-08-21T23:36:49.754Z,8.52
2022-08-21T23:39:43.126Z,7.82
2022-08-21T23:42:27.964Z,10.20
2022-08-21T23:45:36.531Z,7.40
2022-08-21T23:48:42.308Z,7.65
2022-08-21T23:51:16.734Z,10.93
2022-08-21T23:54:13.847Z,8.45
2022-08-21T23:57:00.137Z,7.63
2022-08-21T23:59:41.498Z,7.85
